Time;durP1;ratioP1;P1;durP2;ratioP2;P2;SDS_P1;SDS_P2;PMS_P1;PMS_P2;Temp;Humidity;BMP_temperature;BMP_pressure;BME280_temperature;BME280_humidity;BME280_pressure;Samples;Min_cycle;Max_cycle;Signal;HPM_P1;HPM_P2
2022/07/03 00:00:42;;;;;;;1.40;1.30;;;24.80;99.00;;;;;;4995662;28;20033;-72
2022/07/03 00:03:08;;;;;;;1.40;1.30;;;24.80;98.90;;;;;;5010571;28;20026;-70
2022/07/03 00:05:34;;;;;;;1.80;1.42;;;24.80;98.80;;;;;;4995675;28;20370;-71
2022/07/03 00:08:02;;;;;;;1.73;1.10;;;24.80;99.30;;;;;;4994344;28;20404;-69
2022/07/03 00:10:28;;;;;;;1.30;1.20;;;24.60;99.60;;;;;;4995340;28;20097;-73
2022/07/03 00:12:54;;;;;;;1.58;1.02;;;24.60;99.90;;;;;;4995241;28;20497;-69
2022/07/03 00:15:20;;;;;;;1.05;0.75;;;24.60;99.70;;;;;;4994164;28;20026;-68
2022/07/03 00:17:45;;;;;;;1.55;1.08;;;24.60;99.90;;;;;;4995328;28;20158;-71
2022/07/03 00:20:11;;;;;;;1.35;1.00;;;24.60;99.80;;;;;;4993984;28;20469;-70
2022/07/03 00:22:41;;;;;;;1.17;1.00;;;24.50;99.90;;;;;;4995260;28;20033;-68
2022/07/03 00:25:10;;;;;;;1.20;0.90;;;24.50;99.90;;;;;;4995161;28;20041;-72
2022/07/03 00:27:37;;;;;;;1.80;1.30;;;24.50;99.90;;;;;;5010144;28;20041;-74
2022/07/03 00:30:07;;;;;;;1.27;1.00;;;24.40;99.90;;;;;;5010222;28;20046;-73
2022/07/03 00:32:37;;;;;;;1.10;1.00;;;24.40;99.90;;;;;;4995059;28;20022;-69
2022/07/03 00:35:03;;;;;;;1.17;1.00;;;24.40;99.90;;;;;;4995013;28;20104;-69
2022/07/03 00:37:29;;;;;;;1.40;1.00;;;24.30;99.90;;;;;;4994655;28;20034;-72
2022/07/03 00:39:57;;;;;;;1.10;1.00;;;24.30;99.90;;;;;;4994680;28;20053;-71
2022/07/03 00:42:23;;;;;;;1.30;0.80;;;24.20;99.90;;;;;;5010047;28;20034;-70
2022/07/03 00:44:57;;;;;;;1.33;0.95;;;24.20;99.90;;;;;;5009923;28;20026;-73
2022/07/03 00:47:25;;;;;;;0.82;0.82;;;24.20;99.90;;;;;;4994626;28;20034;-68
2022/07/03 00:49:54;;;;;;;1.02;0.93;;;24.20;99.90;;;;;;4994750;28;20092;-70
2022/07/03 00:52:21;;;;;;;2.08;0.95;;;24.20;99.90;;;;;;4993569;28;20033;-74
2022/07/03 00:54:59;;;;;;;1.00;0.90;;;24.10;99.90;;;;;;4994331;28;20388;-70
2022/07/03 00:57:27;;;;;;;0.85;0.85;;;24.10;99.90;;;;;;4994716;28;20033;-72
2022/07/03 00:59:54;;;;;;;1.40;1.30;;;24.10;99.90;;;;;;4994458;28;20022;-72
2022/07/03 01:02:42;;;;;;;1.17;1.08;;;24.10;99.90;;;;;;4994726;28;20030;-70
2022/07/03 01:05:31;;;;;;;1.10;1.00;;;24.00;99.90;;;;;;4994627;28;20026;-68
2022/07/03 01:08:10;;;;;;;1.00;0.80;;;23.90;99.90;;;;;;4994263;28;20037;-69
2022/07/03 01:10:56;;;;;;;1.17;1.05;;;23.90;99.90;;;;;;4994508;28;20031;-73
2022/07/03 01:13:50;;;;;;;1.15;1.00;;;23.90;99.90;;;;;;4994257;28;20069;-70
2022/07/03 01:16:49;;;;;;;1.30;1.20;;;23.80;99.90;;;;;;4993154;28;20050;-69
2022/07/03 01:19:43;;;;;;;1.20;1.00;;;23.80;99.90;;;;;;4994487;28;20496;-68
2022/07/03 01:22:42;;;;;;;1.20;1.10;;;23.70;99.90;;;;;;4994000;28;20022;-68
2022/07/03 01:25:38;;;;;;;3.17;1.48;;;23.70;99.90;;;;;;4994144;28;20448;-73
2022/07/03 01:28:08;;;;;;;1.35;1.25;;;23.60;99.90;;;;;;4994050;28;20030;-72
2022/07/03 01:30:43;;;;;;;1.30;1.20;;;23.50;99.90;;;;;;4994140;28;20022;-70
2022/07/03 01:33:15;;;;;;;0.90;0.90;;;23.50;99.90;;;;;;4994179;28;20022;-70
2022/07/03 01:35:46;;;;;;;0.93;0.93;;;23.60;99.90;;;;;;4994032;28;20032;-70
2022/07/03 01:38:13;;;;;;;1.38;0.90;;;23.60;99.90;;;;;;4994010;28;20018;-68
2022/07/03 01:40:41;;;;;;;1.73;1.30;;;23.60;99.90;;;;;;4994135;28;20101;-73
2022/07/03 01:43:10;;;;;;;1.48;1.38;;;23.60;99.90;;;;;;4993921;28;20029;-72
2022/07/03 01:45:43;;;;;;;2.15;1.00;;;23.60;99.90;;;;;;4994029;28;20073;-71
2022/07/03 01:48:10;;;;;;;1.20;1.10;;;23.50;99.90;;;;;;4995257;28;20057;-69
2022/07/03 01:50:38;;;;;;;0.80;0.80;;;23.50;99.90;;;;;;4998063;28;20029;-70
2022/07/03 01:53:07;;;;;;;0.70;0.70;;;23.50;99.90;;;;;;4997841;28;20022;-68
2022/07/03 01:55:34;;;;;;;0.90;0.80;;;23.50;99.90;;;;;;4997983;28;20022;-69
2022/07/03 01:58:00;;;;;;;0.90;0.90;;;23.50;99.90;;;;;;4997850;28;20022;-73
2022/07/03 02:00:27;;;;;;;0.90;0.88;;;23.50;99.90;;;;;;4997852;28;20072;-72
2022/07/03 02:03:02;;;;;;;1.20;0.80;;;23.40;99.90;;;;;;4997940;28;20388;-70
2022/07/03 02:05:46;;;;;;;1.27;0.90;;;23.40;99.90;;;;;;4997587;28;20065;-72
2022/07/03 02:08:27;;;;;;;1.70;1.00;;;23.50;99.90;;;;;;5012826;28;20062;-70
2022/07/03 02:11:15;;;;;;;1.17;1.08;;;23.40;99.90;;;;;;4997846;28;20462;-70
2022/07/03 02:14:09;;;;;;;1.50;1.40;;;23.40;99.90;;;;;;4997383;28;20061;-70
2022/07/03 02:16:54;;;;;;;1.65;1.20;;;23.30;99.90;;;;;;4996724;28;20384;-71
2022/07/03 02:19:29;;;;;;;1.52;0.80;;;23.20;99.90;;;;;;4997620;28;20096;-74
2022/07/03 02:21:56;;;;;;;1.35;0.90;;;23.20;99.90;;;;;;4997289;28;20604;-72
2022/07/03 02:24:27;;;;;;;1.30;1.20;;;23.20;99.90;;;;;;4997268;28;20109;-70
2022/07/03 02:27:05;;;;;;;1.65;1.05;;;23.20;99.90;;;;;;4996114;28;20453;-71
2022/07/03 02:29:41;;;;;;;1.30;1.20;;;23.10;99.90;;;;;;4996032;28;20034;-69
2022/07/03 02:32:13;;;;;;;2.05;1.10;;;23.10;99.90;;;;;;4997412;28;20093;-68
2022/07/03 02:34:49;;;;;;;0.80;0.80;;;23.00;99.90;;;;;;4997187;28;20027;-72
2022/07/03 02:37:22;;;;;;;1.20;1.10;;;23.10;99.90;;;;;;4997190;28;20080;-69
2022/07/03 02:40:02;;;;;;;1.27;1.10;;;23.10;99.90;;;;;;4997182;28;20022;-67
2022/07/03 02:42:53;;;;;;;1.73;1.45;;;23.10;99.90;;;;;;4997057;28;20105;-74
2022/07/03 02:45:22;;;;;;;1.17;0.90;;;23.10;99.90;;;;;;4997086;28;20015;-70
2022/07/03 02:48:02;;;;;;;1.27;1.17;;;23.00;99.90;;;;;;4995784;28;20031;-70
2022/07/03 02:50:28;;;;;;;1.13;0.90;;;23.00;99.90;;;;;;4996877;28;20050;-71
2022/07/03 02:53:06;;;;;;;1.70;1.08;;;23.00;99.90;;;;;;4996999;28;20056;-69
2022/07/03 02:55:45;;;;;;;2.05;1.00;;;23.00;99.90;;;;;;4996992;28;20116;-74
2022/07/03 02:58:26;;;;;;;0.75;0.75;;;23.00;99.90;;;;;;4996887;28;20026;-68
2022/07/03 03:01:47;;;;;;;0.60;0.60;;;23.00;99.90;;;;;;4996942;28;20479;-72
2022/07/03 03:04:29;;;;;;;0.90;0.80;;;23.00;99.90;;;;;;4896807;29;20040;-69
2022/07/03 03:07:13;;;;;;;2.20;1.00;;;23.00;99.90;;;;;;4989031;28;20097;-73
2022/07/03 03:09:44;;;;;;;0.95;0.80;;;23.00;99.90;;;;;;4995696;28;20412;-69
2022/07/03 03:12:11;;;;;;;1.20;0.60;;;23.00;99.90;;;;;;4995505;28;20452;-67
2022/07/03 03:14:40;;;;;;;1.52;1.42;;;23.00;99.90;;;;;;4996427;28;20105;-70
2022/07/03 03:17:07;;;;;;;2.00;1.60;;;22.90;99.90;;;;;;5011690;28;20034;-68
2022/07/03 03:19:40;;;;;;;2.50;1.83;;;22.70;99.90;;;;;;4996365;28;20026;-74
2022/07/03 03:23:05;;;;;;;3.30;2.80;;;22.70;99.90;;;;;;4996269;28;20022;-71
2022/07/03 03:25:31;;;;;;;2.20;2.00;;;22.50;99.90;;;;;;4929040;29;20039;-67
2022/07/03 03:27:58;;;;;;;2.33;2.10;;;22.40;99.90;;;;;;4992462;28;20584;-72
2022/07/03 03:30:24;;;;;;;1.65;1.50;;;22.50;99.90;;;;;;5011286;28;20388;-72
2022/07/03 03:32:50;;;;;;;1.48;1.38;;;22.50;99.90;;;;;;4994727;28;20031;-70
2022/07/03 03:35:16;;;;;;;2.08;1.60;;;22.60;99.90;;;;;;4996173;28;20018;-70
2022/07/03 03:37:41;;;;;;;2.28;1.90;;;22.70;99.90;;;;;;4994946;28;20030;-70
2022/07/03 03:40:08;;;;;;;2.50;2.30;;;22.70;99.90;;;;;;4996059;28;20049;-71
2022/07/03 03:42:33;;;;;;;2.60;2.13;;;22.60;99.90;;;;;;4993654;28;20022;-69
2022/07/03 03:44:59;;;;;;;2.03;1.85;;;22.60;99.90;;;;;;4996066;28;20026;-69
2022/07/03 03:47:25;;;;;;;1.63;1.52;;;22.60;99.90;;;;;;5010621;28;20489;-71
2022/07/03 03:49:51;;;;;;;1.80;1.70;;;22.70;99.90;;;;;;4996118;28;20023;-67
2022/07/03 03:52:16;;;;;;;2.00;1.80;;;22.80;99.90;;;;;;4995879;28;20022;-73
2022/07/03 03:54:42;;;;;;;2.38;2.15;;;22.80;99.90;;;;;;4995815;28;20485;-72
2022/07/03 03:57:19;;;;;;;1.70;1.60;;;22.80;99.90;;;;;;5010780;28;20037;-72
2022/07/03 03:59:45;;;;;;;2.45;1.70;;;22.80;99.90;;;;;;4995789;28;20014;-69
2022/07/03 04:02:12;;;;;;;1.50;1.40;;;22.80;99.90;;;;;;4995319;28;20076;-70
2022/07/03 04:04:38;;;;;;;1.42;1.33;;;22.90;99.90;;;;;;4995767;28;20026;-74
2022/07/03 04:07:04;;;;;;;1.65;1.25;;;22.90;99.90;;;;;;4995463;28;20035;-68
2022/07/03 04:09:30;;;;;;;2.33;1.60;;;22.90;99.90;;;;;;4995434;28;20072;-68
2022/07/03 04:11:56;;;;;;;1.02;1.00;;;23.00;99.90;;;;;;4994968;28;20019;-69
2022/07/03 04:14:21;;;;;;;1.40;1.30;;;23.00;99.90;;;;;;4995580;28;20030;-68
2022/07/03 04:16:47;;;;;;;2.65;1.10;;;23.00;99.90;;;;;;4995192;28;20026;-70
2022/07/03 04:19:13;;;;;;;1.33;1.05;;;23.00;99.90;;;;;;5010546;28;20497;-72
2022/07/03 04:21:38;;;;;;;1.35;1.15;;;23.00;99.90;;;;;;4994090;28;20101;-71
2022/07/03 04:24:04;;;;;;;2.45;0.93;;;23.00;99.90;;;;;;5010328;28;20027;-73
2022/07/03 04:26:30;;;;;;;1.25;0.88;;;23.10;99.90;;;;;;5010228;28;20042;-70
2022/07/03 04:28:56;;;;;;;0.95;0.90;;;23.10;99.90;;;;;;4995244;28;20528;-73
2022/07/03 04:31:21;;;;;;;2.28;1.55;;;23.20;99.90;;;;;;4994944;28;20539;-71
2022/07/03 04:33:47;;;;;;;1.10;1.00;;;23.20;99.90;;;;;;4994991;28;20034;-68
2022/07/03 04:36:13;;;;;;;1.05;0.90;;;23.30;99.90;;;;;;4995056;28;20033;-71
2022/07/03 04:38:39;;;;;;;1.40;1.02;;;23.30;99.90;;;;;;4995030;28;20468;-73
2022/07/03 04:41:04;;;;;;;1.60;1.08;;;23.40;99.90;;;;;;5009893;28;20109;-72
2022/07/03 04:43:30;;;;;;;3.58;1.40;;;23.40;99.90;;;;;;5010016;28;20030;-72
2022/07/03 04:45:55;;;;;;;1.30;1.17;;;23.40;99.90;;;;;;4994721;28;20028;-71
2022/07/03 04:48:21;;;;;;;1.45;1.00;;;23.50;99.90;;;;;;4994759;28;20108;-72
2022/07/03 04:50:47;;;;;;;1.75;1.40;;;23.50;99.90;;;;;;4994844;28;20469;-71
2022/07/03 04:53:12;;;;;;;1.23;1.10;;;23.50;99.90;;;;;;4994529;28;20033;-72
2022/07/03 04:55:38;;;;;;;1.20;1.08;;;23.60;99.90;;;;;;4994665;28;20476;-71
2022/07/03 04:58:04;;;;;;;1.27;1.17;;;23.70;99.90;;;;;;4994818;28;20033;-72
2022/07/03 05:00:29;;;;;;;1.85;1.15;;;23.70;99.90;;;;;;4994387;28;20022;-69
2022/07/03 05:02:55;;;;;;;1.23;1.13;;;23.80;99.90;;;;;;5009647;28;20029;-68
2022/07/03 05:05:21;;;;;;;1.27;1.17;;;23.80;99.90;;;;;;4994397;28;20049;-68
2022/07/03 05:07:47;;;;;;;1.55;1.33;;;23.90;99.90;;;;;;4994459;28;20026;-70
2022/07/03 05:10:12;;;;;;;1.63;1.35;;;23.90;99.90;;;;;;4993216;28;20026;-73
2022/07/03 05:12:38;;;;;;;1.00;1.00;;;24.00;99.90;;;;;;4994171;28;20117;-71
2022/07/03 05:15:04;;;;;;;1.23;1.13;;;24.20;99.90;;;;;;4994233;28;20026;-69
2022/07/03 05:17:30;;;;;;;1.23;1.13;;;24.20;99.90;;;;;;4994437;28;20030;-72
2022/07/03 05:20:38;;;;;;;1.80;1.17;;;24.30;99.90;;;;;;4994254;28;20385;-70
2022/07/03 05:22:44;;;;;;;1.30;1.05;;;24.40;99.90;;;;;;4991067;28;20031;-70
2022/07/03 05:25:10;;;;;;;1.33;1.08;;;24.40;99.90;;;;;;4993015;28;20033;-70
2022/07/03 05:27:39;;;;;;;1.48;1.15;;;24.60;99.90;;;;;;4994138;28;20026;-70
2022/07/03 05:30:05;;;;;;;1.42;1.20;;;24.60;99.90;;;;;;4994068;28;20027;-72
2022/07/03 05:32:30;;;;;;;1.20;1.10;;;24.50;99.90;;;;;;4994016;28;20026;-70
2022/07/03 05:34:56;;;;;;;2.25;1.23;;;24.50;99.90;;;;;;4994075;28;20027;-72
2022/07/03 05:37:22;;;;;;;1.38;1.20;;;24.60;99.90;;;;;;4994070;28;20091;-72
2022/07/03 05:39:47;;;;;;;1.20;1.00;;;24.60;99.90;;;;;;4994134;28;20037;-70
2022/07/03 05:42:13;;;;;;;2.78;1.65;;;24.70;99.90;;;;;;5009101;28;20030;-71
2022/07/03 05:44:39;;;;;;;2.17;1.65;;;24.80;99.90;;;;;;4993792;28;20097;-72
2022/07/03 05:47:04;;;;;;;1.75;1.42;;;24.90;99.90;;;;;;5008964;28;20065;-68
2022/07/03 05:49:30;;;;;;;2.00;1.50;;;25.00;99.90;;;;;;5009050;28;20088;-72
2022/07/03 05:51:56;;;;;;;4.25;2.15;;;25.00;99.90;;;;;;5009060;28;20022;-73
2022/07/03 05:54:21;;;;;;;1.60;1.50;;;25.10;99.90;;;;;;4993967;28;20026;-68
2022/07/03 05:56:47;;;;;;;2.28;2.08;;;25.10;99.90;;;;;;4992491;28;20104;-72
2022/07/03 05:59:12;;;;;;;1.83;1.67;;;25.10;99.90;;;;;;5008784;28;20022;-71
2022/07/03 06:01:38;;;;;;;2.67;1.90;;;25.10;99.90;;;;;;4993996;28;20065;-74
2022/07/03 06:04:04;;;;;;;1.50;1.38;;;25.20;99.90;;;;;;4993781;28;20094;-71
2022/07/03 06:06:30;;;;;;;1.95;1.35;;;25.40;99.90;;;;;;5008845;28;20038;-71
2022/07/03 06:08:55;;;;;;;1.88;1.70;;;25.50;99.90;;;;;;4993825;28;20474;-70
2022/07/03 06:11:21;;;;;;;1.55;1.45;;;25.60;99.90;;;;;;4993762;28;20029;-72
2022/07/03 06:13:47;;;;;;;2.28;1.65;;;25.70;99.90;;;;;;5008470;28;20584;-70
2022/07/03 06:16:13;;;;;;;2.03;1.83;;;25.80;99.90;;;;;;4992617;28;20054;-73
2022/07/03 06:18:39;;;;;;;2.20;2.10;;;25.90;99.90;;;;;;4993578;28;20420;-70
2022/07/03 06:21:05;;;;;;;2.30;2.10;;;25.90;99.90;;;;;;4993611;28;20030;-71
2022/07/03 06:23:30;;;;;;;2.92;2.28;;;26.00;99.80;;;;;;4993608;28;20023;-71
2022/07/03 06:25:56;;;;;;;3.10;2.72;;;26.10;99.80;;;;;;4993549;28;20019;-70
2022/07/03 06:28:22;;;;;;;2.58;2.38;;;26.10;99.70;;;;;;5008469;28;20031;-71
2022/07/03 06:30:47;;;;;;;2.53;2.33;;;26.20;99.90;;;;;;4993639;28;20388;-71
2022/07/03 06:33:13;;;;;;;2.30;2.20;;;26.20;99.40;;;;;;4993565;28;20073;-70
2022/07/03 06:35:39;;;;;;;2.60;2.40;;;26.40;99.50;;;;;;4996851;28;20026;-70
2022/07/03 06:38:04;;;;;;;2.53;2.40;;;26.60;99.20;;;;;;4997213;28;20030;-71
2022/07/03 06:40:30;;;;;;;4.65;3.03;;;26.70;99.10;;;;;;4997151;28;20050;-68
2022/07/03 06:42:56;;;;;;;3.05;2.67;;;26.80;98.40;;;;;;4995671;28;20081;-71
2022/07/03 06:45:22;;;;;;;2.67;2.47;;;26.90;98.10;;;;;;5012119;28;20121;-68
2022/07/03 06:47:48;;;;;;;2.53;2.33;;;27.00;97.50;;;;;;4996921;28;20113;-72
2022/07/03 06:50:13;;;;;;;3.03;2.33;;;27.20;97.10;;;;;;4996965;28;20030;-70
2022/07/03 06:52:39;;;;;;;3.90;2.20;;;27.30;96.90;;;;;;4996783;28;20030;-68
2022/07/03 06:55:05;;;;;;;2.20;2.10;;;27.40;97.00;;;;;;4996866;28;20033;-71
2022/07/03 06:57:31;;;;;;;2.65;2.00;;;27.50;97.10;;;;;;4995335;28;20064;-72
2022/07/03 06:59:57;;;;;;;2.92;2.20;;;27.70;97.00;;;;;;4996705;28;20372;-70
2022/07/03 07:02:22;;;;;;;2.88;2.38;;;27.80;96.50;;;;;;4996322;28;20417;-71
2022/07/03 07:04:48;;;;;;;3.00;2.47;;;27.80;96.10;;;;;;4996677;28;20030;-72
2022/07/03 07:07:14;;;;;;;5.78;3.03;;;27.90;95.80;;;;;;5011688;28;20035;-73
2022/07/03 07:09:40;;;;;;;2.95;2.35;;;28.00;95.70;;;;;;5011550;28;20026;-70
2022/07/03 07:12:06;;;;;;;4.43;3.00;;;28.10;95.00;;;;;;4995269;28;20493;-70
2022/07/03 07:14:32;;;;;;;3.90;3.00;;;28.20;94.70;;;;;;5011572;28;20026;-69
2022/07/03 07:16:57;;;;;;;3.70;2.38;;;28.20;94.60;;;;;;4996438;28;20022;-72
2022/07/03 07:19:23;;;;;;;5.78;3.13;;;28.30;94.80;;;;;;5011477;28;20030;-73
2022/07/03 07:21:49;;;;;;;4.82;3.08;;;28.40;94.60;;;;;;4996448;28;20022;-73
2022/07/03 07:24:14;;;;;;;4.13;2.65;;;28.50;94.90;;;;;;4996057;28;20385;-70
2022/07/03 07:26:40;;;;;;;3.30;2.58;;;28.50;93.60;;;;;;4996233;28;20370;-73
2022/07/03 07:29:06;;;;;;;4.68;3.42;;;28.70;93.40;;;;;;4996338;28;20050;-70
2022/07/03 07:31:32;;;;;;;4.13;3.03;;;28.80;93.10;;;;;;4996157;28;20384;-70
2022/07/03 07:33:57;;;;;;;4.13;3.00;;;28.80;93.00;;;;;;4996244;28;20520;-72
2022/07/03 07:36:23;;;;;;;4.50;3.42;;;29.00;93.20;;;;;;4996189;28;20058;-72
2022/07/03 07:38:49;;;;;;;3.25;2.50;;;29.00;92.80;;;;;;5010902;28;20033;-73
2022/07/03 07:41:14;;;;;;;3.38;2.83;;;29.10;92.70;;;;;;4996154;28;20098;-72
2022/07/03 07:43:40;;;;;;;3.70;3.40;;;29.20;92.50;;;;;;4995970;28;20034;-72
2022/07/03 07:46:06;;;;;;;4.53;3.30;;;29.10;92.00;;;;;;4993593;28;20038;-70
2022/07/03 07:48:34;;;;;;;3.05;2.80;;;29.80;91.50;;;;;;4994586;28;20025;-72
2022/07/03 07:51:00;;;;;;;2.63;2.42;;;31.90;88.50;;;;;;4995795;28;20049;-70
2022/07/03 07:53:25;;;;;;;5.70;2.85;;;34.00;82.60;;;;;;5010853;28;20485;-72
2022/07/03 07:55:51;;;;;;;3.15;2.30;;;35.20;77.50;;;;;;4995482;28;20358;-73
2022/07/03 07:58:17;;;;;;;4.32;3.05;;;36.40;71.40;;;;;;5010732;28;20030;-72
2022/07/03 08:05:35;;;;;;;4.65;2.80;;;36.90;67.20;;;;;;4995681;28;20030;-70
2022/07/03 08:06:14;;;;;;;2.97;2.22;;;38.20;63.80;;;;;;4995660;28;20060;-69
2022/07/03 08:08:40;;;;;;;2.28;1.88;;;38.70;59.80;;;;;;4995409;28;20392;-72
2022/07/03 08:11:07;;;;;;;3.08;2.45;;;39.10;58.00;;;;;;4995251;28;20523;-69
2022/07/03 08:13:32;;;;;;;2.65;2.40;;;39.60;56.60;;;;;;4995204;28;20050;-71
2022/07/03 08:15:59;;;;;;;2.60;2.40;;;39.80;55.60;;;;;;4995288;28;20105;-72
2022/07/03 08:18:24;;;;;;;3.05;2.22;;;39.90;54.90;;;;;;4995292;28;20022;-71
2022/07/03 08:20:50;;;;;;;2.45;2.00;;;40.50;54.60;;;;;;4995244;28;20049;-72
2022/07/03 08:23:16;;;;;;;2.17;2.00;;;40.80;52.90;;;;;;4994903;28;20023;-70
2022/07/03 08:25:42;;;;;;;3.10;2.40;;;41.10;52.50;;;;;;5010253;28;20392;-69
2022/07/03 08:28:07;;;;;;;3.45;1.98;;;41.20;50.60;;;;;;5010088;28;20038;-69
2022/07/03 08:30:33;;;;;;;2.20;2.00;;;41.20;51.50;;;;;;4994903;28;20062;-72
2022/07/03 08:32:59;;;;;;;5.40;2.65;;;41.20;50.40;;;;;;5010140;28;20022;-73
2022/07/03 08:35:25;;;;;;;2.70;2.40;;;41.10;49.50;;;;;;4995027;28;20023;-70
2022/07/03 08:37:51;;;;;;;2.00;1.75;;;41.30;50.70;;;;;;4993441;28;20377;-70
2022/07/03 08:40:19;;;;;;;4.32;2.60;;;41.50;50.00;;;;;;4995269;28;20026;-69
2022/07/03 08:42:53;;;;;;;3.92;2.00;;;41.50;47.80;;;;;;4994832;28;20102;-71
2022/07/03 08:45:21;;;;;;;2.40;2.05;;;41.30;48.90;;;;;;4994687;28;20384;-69
2022/07/03 08:47:48;;;;;;;2.28;2.08;;;41.80;49.10;;;;;;4994591;28;20065;-70
2022/07/03 08:50:18;;;;;;;2.17;2.08;;;41.80;49.60;;;;;;4994678;28;20469;-70
2022/07/03 08:52:45;;;;;;;2.17;1.98;;;42.00;48.80;;;;;;4994372;28;20025;-69
2022/07/03 08:55:13;;;;;;;2.70;2.50;;;42.20;48.20;;;;;;5009727;28;20053;-71
2022/07/03 08:57:42;;;;;;;4.15;2.63;;;42.30;48.50;;;;;;5009419;28;20088;-70
2022/07/03 09:00:11;;;;;;;2.20;2.00;;;42.10;47.60;;;;;;4994549;28;20040;-70
2022/07/03 09:02:43;;;;;;;2.70;2.38;;;41.90;48.00;;;;;;4994491;28;20465;-72
2022/07/03 09:05:10;;;;;;;2.63;2.42;;;41.90;48.20;;;;;;4993125;28;20045;-69
2022/07/03 09:07:36;;;;;;;2.50;2.22;;;41.50;48.80;;;;;;4994198;28;20038;-70
2022/07/03 09:10:08;;;;;;;2.10;2.00;;;41.60;47.10;;;;;;4994397;28;20022;-71
2022/07/03 09:12:34;;;;;;;2.40;2.20;;;41.60;48.50;;;;;;4994093;28;20100;-70
2022/07/03 09:15:01;;;;;;;2.65;2.45;;;41.60;49.50;;;;;;4994452;28;20097;-69
2022/07/03 09:17:30;;;;;;;2.50;2.30;;;41.50;48.80;;;;;;4994300;28;20481;-70
2022/07/03 09:20:03;;;;;;;2.45;2.28;;;41.10;48.00;;;;;;4994174;28;20477;-72
2022/07/03 09:22:34;;;;;;;2.38;2.17;;;41.10;49.30;;;;;;4992693;28;20030;-69
2022/07/03 09:25:09;;;;;;;2.65;2.33;;;41.30;49.40;;;;;;4994124;28;20022;-72
2022/07/03 09:27:48;;;;;;;2.80;2.60;;;41.30;48.80;;;;;;4994150;28;20051;-70
2022/07/03 09:30:14;;;;;;;4.10;2.70;;;41.30;49.00;;;;;;4992798;28;20018;-72
2022/07/03 09:32:44;;;;;;;2.63;1.92;;;41.40;48.10;;;;;;5009051;28;20018;-69
2022/07/03 09:35:19;;;;;;;2.13;1.93;;;41.30;48.40;;;;;;4993895;28;20033;-70
2022/07/03 09:37:59;;;;;;;1.70;1.60;;;41.60;48.40;;;;;;4993936;28;20026;-69
2022/07/03 09:40:27;;;;;;;1.83;1.70;;;41.80;47.10;;;;;;5009091;28;20022;-73
2022/07/03 09:43:11;;;;;;;2.00;1.60;;;41.60;47.80;;;;;;4993958;28;20019;-70
2022/07/03 09:45:48;;;;;;;2.25;1.80;;;41.50;46.30;;;;;;4993960;28;20050;-71
2022/07/03 09:48:34;;;;;;;2.80;1.75;;;41.60;46.80;;;;;;4993732;28;20104;-69
2022/07/03 09:51:19;;;;;;;1.67;1.58;;;41.90;46.50;;;;;;4993845;28;20396;-70
2022/07/03 09:53:50;;;;;;;2.13;1.90;;;41.60;47.40;;;;;;4993764;28;20501;-69
2022/07/03 09:56:16;;;;;;;2.03;1.70;;;41.80;47.70;;;;;;4993814;28;20101;-72
2022/07/03 09:59:00;;;;;;;2.38;1.70;;;41.40;46.10;;;;;;4993762;28;20102;-69
2022/07/03 10:01:25;;;;;;;3.80;1.60;;;41.00;46.60;;;;;;4993781;28;20018;-72
2022/07/03 10:03:51;;;;;;;1.50;1.40;;;40.80;46.30;;;;;;4993642;28;20019;-71
2022/07/03 10:06:17;;;;;;;1.80;1.30;;;40.90;46.80;;;;;;4993551;28;20050;-69
2022/07/03 10:08:43;;;;;;;1.45;1.23;;;41.20;46.40;;;;;;4994076;28;20061;-70
2022/07/03 10:11:09;;;;;;;1.77;1.55;;;41.50;46.30;;;;;;4997655;28;20053;-72
2022/07/03 10:13:40;;;;;;;2.95;1.70;;;41.60;44.90;;;;;;4997359;28;20046;-72
2022/07/03 10:16:07;;;;;;;1.40;1.30;;;41.50;46.10;;;;;;4997642;28;20015;-71
2022/07/03 10:18:39;;;;;;;1.92;1.40;;;41.80;45.60;;;;;;4997359;28;20084;-72
2022/07/03 10:21:06;;;;;;;1.98;1.10;;;41.50;43.60;;;;;;4997370;28;20022;-72
2022/07/03 10:23:32;;;;;;;1.75;1.60;;;41.50;45.30;;;;;;4997340;28;20033;-72
2022/07/03 10:25:58;;;;;;;5.10;1.80;;;41.20;45.00;;;;;;4996141;28;20108;-72
2022/07/03 10:28:24;;;;;;;2.05;1.60;;;41.40;45.70;;;;;;4997180;28;20034;-72
2022/07/03 10:30:50;;;;;;;1.63;1.40;;;41.30;45.90;;;;;;4997380;28;20528;-69
2022/07/03 10:33:17;;;;;;;2.45;1.90;;;41.30;45.10;;;;;;5012177;28;20050;-70
2022/07/03 10:35:50;;;;;;;2.08;1.35;;;40.80;45.20;;;;;;4997076;28;20057;-71
2022/07/03 10:38:31;;;;;;;3.08;1.48;;;40.90;45.00;;;;;;4997277;28;20026;-69
2022/07/03 10:46:50;;;;;;;2.80;1.60;;;41.40;45.00;;;;;;4969093;28;20070;-72
2022/07/03 10:49:16;;;;;;;1.70;1.60;;;41.50;44.40;;;;;;4996740;28;20387;-72
2022/07/03 10:51:45;;;;;;;2.47;1.70;;;41.60;44.90;;;;;;4996918;28;20461;-70
2022/07/03 10:54:15;;;;;;;3.35;1.60;;;41.60;44.20;;;;;;4996861;28;20473;-72
2022/07/03 10:57:00;;;;;;;2.05;1.77;;;41.60;45.40;;;;;;4996724;28;20102;-70
2022/07/03 10:59:32;;;;;;;3.50;2.17;;;41.80;46.80;;;;;;4997035;28;20018;-71
2022/07/03 11:02:24;;;;;;;3.45;1.63;;;41.80;43.60;;;;;;4995260;28;20026;-72
2022/07/03 11:05:01;;;;;;;2.00;1.80;;;41.60;45.50;;;;;;4994782;28;20043;-71
2022/07/03 11:08:02;;;;;;;2.03;1.83;;;41.90;44.70;;;;;;4996532;28;20485;-71
2022/07/03 11:10:28;;;;;;;2.73;1.93;;;41.60;45.50;;;;;;4996410;28;20029;-71
2022/07/03 11:12:56;;;;;;;2.05;1.75;;;41.70;44.30;;;;;;4996424;28;20047;-70
2022/07/03 11:15:33;;;;;;;3.22;2.05;;;41.50;43.60;;;;;;4996520;28;20026;-71
2022/07/03 11:18:08;;;;;;;2.72;2.00;;;41.60;44.30;;;;;;4996228;28;20022;-70
2022/07/03 11:20:58;;;;;;;2.20;1.60;;;41.60;44.30;;;;;;4996289;28;20030;-72
2022/07/03 11:23:33;;;;;;;2.03;1.92;;;41.60;43.80;;;;;;4996272;28;20027;-70
2022/07/03 11:26:01;;;;;;;2.30;1.92;;;41.70;44.20;;;;;;4995007;28;20034;-71
2022/07/03 11:28:33;;;;;;;3.58;1.92;;;42.00;44.40;;;;;;4994832;28;20034;-71
2022/07/03 11:31:10;;;;;;;1.88;1.70;;;42.10;43.70;;;;;;4996103;28;20491;-72
2022/07/03 11:33:42;;;;;;;2.72;2.08;;;41.90;44.90;;;;;;4996036;28;20048;-72
2022/07/03 11:36:16;;;;;;;;;;;41.90;42.70;;;;;;4996535;28;20026;-69
2022/07/03 11:38:49;;;;;;;2.00;1.90;;;41.50;43.80;;;;;;4995992;28;19913;-71
2022/07/03 11:41:16;;;;;;;2.17;1.83;;;41.60;46.00;;;;;;4994738;28;20026;-70
2022/07/03 11:43:53;;;;;;;1.98;1.85;;;41.30;44.50;;;;;;4995932;28;20054;-71
2022/07/03 11:46:21;;;;;;;2.15;1.85;;;41.30;44.90;;;;;;4995588;28;20026;-71
2022/07/03 11:48:48;;;;;;;3.40;2.33;;;41.50;43.90;;;;;;4995948;28;20113;-71
2022/07/03 11:51:15;;;;;;;5.18;2.22;;;41.10;43.00;;;;;;4995839;28;20018;-72
2022/07/03 11:53:40;;;;;;;4.70;2.17;;;41.10;44.50;;;;;;4995708;28;20023;-70
2022/07/03 11:56:08;;;;;;;2.55;2.10;;;41.30;44.10;;;;;;4995834;28;20534;-69
2022/07/03 11:58:47;;;;;;;2.30;2.10;;;41.20;44.30;;;;;;4995667;28;20102;-70
2022/07/03 12:01:28;;;;;;;3.40;1.83;;;41.10;44.60;;;;;;4995532;28;20097;-69
2022/07/03 12:04:03;;;;;;;2.97;2.53;;;41.40;45.10;;;;;;4995692;28;20445;-69
2022/07/03 12:06:49;;;;;;;2.33;2.13;;;41.20;44.00;;;;;;4995415;28;20425;-70
2022/07/03 12:09:36;;;;;;;2.33;2.03;;;41.50;44.70;;;;;;4995461;28;20113;-70
2022/07/03 12:12:08;;;;;;;3.17;2.38;;;41.50;43.50;;;;;;4995257;28;20452;-71
2022/07/03 12:14:44;;;;;;;2.10;1.92;;;41.70;43.80;;;;;;4995069;28;20087;-71
2022/07/03 12:17:21;;;;;;;2.00;1.90;;;41.70;44.60;;;;;;4995438;28;20619;-71
2022/07/03 12:19:55;;;;;;;2.55;2.17;;;41.90;43.80;;;;;;4995229;28;20027;-71
2022/07/03 12:22:29;;;;;;;2.30;2.10;;;42.00;44.90;;;;;;4995149;28;20440;-71
2022/07/03 12:25:08;;;;;;;2.28;2.03;;;41.90;43.80;;;;;;4995148;28;20028;-71
2022/07/03 12:27:41;;;;;;;2.40;2.30;;;41.80;44.30;;;;;;4995139;28;20113;-69
2022/07/03 12:30:15;;;;;;;2.33;2.13;;;41.60;43.30;;;;;;4994928;28;20477;-69
2022/07/03 12:32:41;;;;;;;4.78;2.90;;;41.40;43.70;;;;;;4994406;28;20110;-71
2022/07/03 12:35:07;;;;;;;2.60;2.35;;;41.60;45.20;;;;;;4995274;28;20146;-72
2022/07/03 12:37:37;;;;;;;2.28;2.15;;;41.00;44.00;;;;;;4994903;28;20030;-71
2022/07/03 12:40:05;;;;;;;5.30;2.80;;;40.80;44.90;;;;;;4994803;28;20033;-71
2022/07/03 12:42:42;;;;;;;2.53;2.22;;;40.40;44.30;;;;;;4994895;28;20023;-71
2022/07/03 12:45:12;;;;;;;2.45;2.28;;;40.50;45.40;;;;;;4994792;28;20026;-71
2022/07/03 12:47:37;;;;;;;2.83;2.40;;;40.60;45.30;;;;;;5009776;28;20030;-71
2022/07/03 12:50:07;;;;;;;2.08;1.90;;;41.00;45.40;;;;;;4994717;28;20543;-71
2022/07/03 12:52:48;;;;;;;4.28;2.40;;;41.20;45.10;;;;;;4994531;28;20014;-70
2022/07/03 12:55:29;;;;;;;2.37;2.03;;;41.40;44.70;;;;;;4994649;28;20480;-72
2022/07/03 13:01:22;;;;;;;;;;;41.60;43.50;;;;;;4995141;28;20500;-71
2022/07/03 13:03:49;;;;;;;3.67;2.60;;;41.20;43.30;;;;;;4994182;28;19912;-72
2022/07/03 13:06:15;;;;;;;2.30;2.20;;;40.70;45.10;;;;;;4994271;28;20033;-69
2022/07/03 13:09:02;;;;;;;2.70;2.50;;;40.90;44.40;;;;;;4994506;28;20046;-70
2022/07/03 13:11:33;;;;;;;2.40;2.20;;;41.00;44.80;;;;;;4994270;28;20026;-69
2022/07/03 13:14:12;;;;;;;;;;;41.10;45.10;;;;;;4994313;28;20074;-69
2022/07/03 13:16:45;;;;;;;4.10;2.92;;;41.20;44.70;;;;;;4994219;28;19913;-72